Adams, North Dakota
Current Conditions -  °F | °C
As of 2:35 PM on Thursday 20 Nov 2014 (Local Time) from KD55 Reporting Station
Clear Clear  
Wind Chill:   Ceiling: Unl
Heat Index: 18°   Visibility: 10mi
Dew Point:   Wind: 7mph
Humidity: 63%   Direction: 210°SSW
Pressure: 30.02"   Gusts: NA
Location:  48.42°N, 98.08°W
Report Text: KD55 202035Z AUTO 21006KT 10SM CLR M08/M14 A3002 RMK AO2
Loading
Personal Weather Stations






























Interactive Weather Map New forecast layout! Learn more

10-Day Weather Forecast

Advertisements
Track Severe Weather on mobile